createdAt,value
2019-03-01T00:00:41.197Z,21.30
2019-03-01T00:05:51.281Z,23.44
2019-03-01T00:10:50.663Z,20.85
2019-03-01T00:15:59.738Z,17.80
2019-03-01T00:21:08.841Z,18.27
2019-03-01T00:26:17.914Z,19.44
2019-03-01T00:31:28.442Z,18.45
2019-03-01T00:36:35.592Z,17.17
2019-03-01T00:41:44.749Z,18.53
2019-03-01T00:46:53.795Z,19.31
2019-03-01T00:52:02.962Z,19.67
2019-03-01T00:57:12.026Z,16.53
2019-03-01T01:02:21.159Z,17.36
2019-03-01T01:07:30.233Z,21.62
2019-03-01T01:12:39.338Z,16.20
2019-03-01T01:17:48.374Z,14.89
2019-03-01T01:22:57.524Z,15.42
2019-03-01T01:28:06.583Z,17.31
2019-03-01T01:33:15.690Z,16.09
2019-03-01T01:38:24.701Z,13.56
2019-03-01T01:43:33.845Z,13.78
2019-03-01T01:48:42.877Z,12.72
2019-03-01T01:53:52.011Z,14.48
2019-03-01T01:59:01.605Z,13.33
2019-03-01T02:04:12.830Z,13.91
2019-03-01T02:09:11.820Z,11.23
2019-03-01T02:14:21.098Z,10.18
2019-03-01T02:19:30.178Z,12.44
2019-03-01T02:24:39.282Z,13.22
2019-03-01T02:29:48.319Z,13.44
2019-03-01T02:34:57.427Z,12.56
2019-03-01T02:40:06.470Z,13.32
2019-03-01T02:45:15.584Z,13.18
2019-03-01T02:50:24.658Z,14.50
2019-03-01T02:55:34.775Z,16.89
2019-03-01T03:00:33.807Z,16.85
2019-03-01T03:05:42.950Z,16.38
2019-03-01T03:10:52.006Z,18.49
2019-03-01T03:16:01.118Z,14.94
2019-03-01T03:21:10.122Z,13.24
2019-03-01T03:26:21.241Z,16.62
2019-03-01T03:31:20.221Z,14.82
2019-03-01T03:36:29.389Z,13.63
2019-03-01T03:41:38.432Z,17.23
2019-03-01T03:46:47.840Z,14.73
2019-03-01T03:51:57.013Z,12.19
2019-03-01T03:57:09.927Z,14.35
2019-03-01T04:02:08.956Z,14.51
2019-03-01T04:07:18.101Z,16.67
2019-03-01T04:12:27.134Z,16.71
2019-03-01T04:17:36.267Z,14.93
2019-03-01T04:22:45.515Z,14.12
2019-03-01T04:27:54.709Z,13.58
2019-03-01T04:33:03.802Z,12.57
2019-03-01T04:38:12.942Z,16.38
2019-03-01T04:43:22.025Z,12.29
2019-03-01T04:48:31.125Z,15.56
2019-03-01T04:53:40.162Z,17.67
2019-03-01T04:58:49.282Z,13.93
2019-03-01T05:03:58.289Z,14.11
2019-03-01T05:09:07.461Z,16.11
2019-03-01T05:14:16.661Z,13.57
2019-03-01T05:19:25.910Z,15.77
2019-03-01T05:24:35.998Z,13.20
2019-03-01T05:29:35.051Z,15.24
2019-03-01T05:34:44.098Z,13.52
2019-03-01T05:39:53.270Z,16.23
2019-03-01T05:45:02.346Z,13.74
2019-03-01T05:50:11.515Z,16.01
2019-03-01T05:55:20.610Z,12.75
2019-03-01T06:00:29.791Z,12.18
2019-03-01T06:05:38.837Z,14.04
2019-03-01T06:10:47.902Z,15.93
2019-03-01T06:15:56.966Z,14.32
2019-03-01T06:21:06.789Z,14.70
2019-03-01T06:26:15.866Z,12.62
2019-03-01T06:31:24.933Z,13.12
2019-03-01T06:36:33.942Z,13.49
2019-03-01T06:41:43.057Z,12.06
2019-03-01T06:46:52.093Z,16.48
2019-03-01T06:52:01.317Z,11.51
2019-03-01T06:57:10.334Z,16.76
2019-03-01T07:02:19.484Z,14.71
2019-03-01T07:07:28.554Z,16.03
2019-03-01T07:12:37.657Z,14.28
2019-03-01T07:17:46.686Z,14.00
2019-03-01T07:22:56.374Z,13.65
2019-03-01T07:28:05.405Z,12.13
2019-03-01T07:33:14.578Z,15.82
2019-03-01T07:38:23.653Z,12.99
2019-03-01T07:43:32.753Z,13.88
2019-03-01T07:48:41.802Z,13.39
2019-03-01T07:53:50.860Z,12.04
2019-03-01T07:59:00.230Z,13.42
2019-03-01T08:04:08.581Z,12.15
2019-03-01T08:09:17.680Z,13.90
2019-03-01T08:14:28.075Z,12.91
2019-03-01T08:19:35.776Z,13.73
2019-03-01T08:24:46.631Z,11.04
2019-03-01T08:29:53.582Z,11.89
2019-03-01T08:35:01.287Z,11.47
2019-03-01T08:40:11.526Z,15.43
2019-03-01T08:45:19.021Z,12.18
2019-03-01T08:50:28.125Z,10.85
2019-03-01T08:55:38.843Z,11.93
2019-03-01T09:00:45.950Z,10.95
2019-03-01T09:05:55.168Z,11.31
2019-03-01T09:11:05.678Z,12.97
2019-03-01T09:16:13.305Z,12.84
2019-03-01T09:21:22.373Z,13.76
2019-03-01T09:26:31.566Z,11.66
2019-03-01T09:31:41.030Z,12.57
2019-03-01T09:36:51.466Z,12.88
2019-03-01T09:42:03.311Z,12.86
2019-03-01T09:47:07.509Z,13.31
2019-03-01T09:52:16.564Z,11.91
2019-03-01T09:57:25.718Z,15.12
2019-03-01T10:02:34.768Z,11.63
2019-03-01T10:07:43.894Z,13.90
2019-03-01T10:12:52.994Z,10.06
2019-03-01T10:18:02.102Z,16.21
2019-03-01T10:23:11.506Z,13.03
2019-03-01T10:28:20.925Z,13.44
2019-03-01T10:33:29.958Z,12.97
2019-03-01T10:38:39.093Z,14.99
2019-03-01T10:43:48.161Z,14.10
2019-03-01T10:48:57.289Z,13.95
2019-03-01T10:54:06.483Z,15.22
2019-03-01T10:59:15.598Z,13.22
2019-03-01T11:04:24.652Z,12.83
2019-03-01T11:09:33.817Z,11.82
2019-03-01T11:14:42.845Z,13.64
2019-03-01T11:19:52.101Z,12.23
2019-03-01T11:25:01.191Z,14.27
2019-03-01T11:30:10.372Z,13.19
2019-03-01T11:35:19.418Z,11.01
2019-03-01T11:40:28.719Z,13.47
2019-03-01T11:45:37.845Z,13.44
2019-03-01T11:50:47.049Z,13.94
2019-03-01T11:55:57.134Z,16.44
2019-03-01T12:00:56.142Z,15.48
2019-03-01T12:06:05.200Z,13.20
2019-03-01T12:11:14.318Z,14.68
2019-03-01T12:16:23.324Z,13.30
2019-03-01T12:21:32.450Z,14.46
2019-03-01T12:26:42.785Z,15.15
2019-03-01T12:31:41.869Z,15.83
2019-03-01T12:36:50.938Z,14.04
2019-03-01T12:42:00.118Z,14.66
2019-03-01T12:47:09.134Z,12.64
2019-03-01T12:52:18.366Z,14.05
2019-03-01T12:57:27.417Z,12.80
2019-03-01T13:02:36.570Z,13.23
2019-03-01T13:07:45.606Z,13.48
2019-03-01T13:12:54.793Z,13.42
2019-03-01T13:18:03.842Z,11.88
2019-03-01T13:23:12.998Z,11.36
2019-03-01T13:28:22.034Z,9.97
2019-03-01T13:33:31.101Z,10.89
2019-03-01T13:38:40.174Z,11.34
2019-03-01T13:43:49.361Z,11.76
2019-03-01T13:48:58.397Z,9.72
2019-03-01T13:54:08.937Z,11.94
2019-03-01T13:59:16.224Z,12.52
2019-03-01T14:04:25.361Z,11.54
2019-03-01T14:09:34.508Z,9.18
2019-03-01T14:14:43.854Z,12.43
2019-03-01T14:19:52.923Z,11.58
2019-03-01T14:25:02.538Z,11.14
2019-03-01T14:30:10.636Z,10.27
2019-03-01T14:35:20.586Z,10.32
2019-03-01T14:40:28.346Z,9.92
2019-03-01T14:45:37.567Z,8.89
2019-03-01T14:50:46.638Z,9.58
2019-03-01T14:55:58.817Z,9.03
2019-03-01T15:01:04.392Z,7.51
2019-03-01T15:06:15.446Z,9.48
2019-03-01T15:11:22.224Z,10.56
2019-03-01T15:16:31.407Z,7.48
2019-03-01T15:21:40.483Z,10.28
2019-03-01T15:26:49.707Z,9.49
2019-03-01T15:31:58.781Z,8.21
2019-03-01T15:37:07.885Z,7.82
2019-03-01T15:42:17.602Z,7.48
2019-03-01T15:47:26.626Z,7.21
2019-03-01T15:52:34.218Z,8.99
2019-03-01T15:57:43.413Z,9.99
2019-03-01T16:02:53.191Z,6.87
2019-03-01T16:08:01.131Z,6.96
2019-03-01T16:13:12.213Z,7.25
2019-03-01T16:18:19.008Z,8.02
2019-03-01T16:23:30.209Z,7.44
2019-03-01T16:28:37.464Z,7.37
2019-03-01T16:33:45.400Z,6.10
2019-03-01T16:38:54.495Z,7.29
2019-03-01T16:44:05.478Z,6.55
2019-03-01T16:49:12.274Z,6.95
2019-03-01T16:54:21.333Z,7.66
2019-03-01T16:59:30.479Z,6.34
2019-03-01T17:04:39.544Z,5.64
2019-03-01T17:09:51.352Z,6.62
2019-03-01T17:14:57.426Z,7.93
2019-03-01T17:20:06.829Z,5.90
2019-03-01T17:25:16.616Z,6.93
2019-03-01T17:30:25.797Z,5.76
2019-03-01T17:35:37.755Z,6.25
2019-03-01T17:40:43.560Z,5.62
2019-03-01T17:45:54.373Z,7.01
2019-03-01T17:51:01.261Z,7.38
2019-03-01T17:56:10.406Z,7.66
2019-03-01T18:01:20.092Z,9.07
2019-03-01T18:06:32.564Z,8.39
2019-03-01T18:11:31.673Z,11.57
2019-03-01T18:16:40.737Z,11.26
2019-03-01T18:21:51.018Z,10.72
2019-03-01T18:26:58.536Z,14.11
2019-03-01T18:32:09.988Z,10.75
2019-03-01T18:37:19.430Z,12.85
2019-03-01T18:42:25.344Z,13.96
2019-03-01T18:47:34.551Z,11.21
2019-03-01T18:52:44.166Z,13.17
2019-03-01T18:57:53.201Z,12.49
2019-03-01T19:03:04.378Z,13.96
2019-03-01T19:08:11.239Z,13.25
2019-03-01T19:13:24.190Z,15.35
2019-03-01T19:18:29.635Z,14.57
2019-03-01T19:23:37.297Z,12.84
2019-03-01T19:28:46.346Z,14.30
2019-03-01T19:33:55.422Z,18.09
2019-03-01T19:39:04.490Z,16.09
2019-03-01T19:44:13.781Z,14.95
2019-03-01T19:49:22.790Z,14.83
2019-03-01T19:54:32.443Z,12.54
2019-03-01T19:59:40.401Z,14.40
2019-03-01T20:04:52.536Z,13.65
2019-03-01T20:09:58.317Z,12.56
2019-03-01T20:15:09.773Z,16.98
2019-03-01T20:20:16.008Z,15.00
2019-03-01T20:25:25.160Z,13.09
2019-03-01T20:30:34.229Z,12.25
2019-03-01T20:35:43.384Z,15.11
2019-03-01T20:40:52.443Z,13.06
2019-03-01T20:46:03.895Z,12.92
2019-03-01T20:51:10.206Z,13.60
2019-03-01T20:56:20.091Z,10.86
2019-03-01T21:01:29.147Z,14.06
2019-03-01T21:06:40.529Z,13.10
2019-03-01T21:11:46.902Z,10.71
2019-03-01T21:16:56.008Z,12.27
2019-03-01T21:22:05.565Z,11.75
2019-03-01T21:27:13.753Z,10.21
2019-03-01T21:32:22.821Z,10.39
2019-03-01T21:37:34.755Z,11.10
2019-03-01T21:42:40.574Z,11.71
2019-03-01T21:47:49.706Z,11.92
2019-03-01T21:53:01.730Z,11.75
2019-03-01T21:58:07.731Z,10.80
2019-03-01T22:03:16.058Z,10.51
2019-03-01T22:08:25.728Z,10.66
2019-03-01T22:13:35.735Z,9.07
2019-03-01T22:18:43.408Z,10.75
2019-03-01T22:23:52.626Z,11.59
2019-03-01T22:29:01.702Z,9.44
2019-03-01T22:34:10.762Z,9.37
2019-03-01T22:39:19.905Z,11.36
2019-03-01T22:44:29.111Z,10.05
2019-03-01T22:49:38.334Z,8.21
2019-03-01T22:54:47.393Z,8.70
2019-03-01T22:59:56.489Z,11.46
2019-03-01T23:05:05.537Z,9.45
2019-03-01T23:10:14.653Z,11.69
2019-03-01T23:15:23.787Z,10.49
2019-03-01T23:20:32.914Z,10.33
2019-03-01T23:25:42.911Z,11.77
2019-03-01T23:30:50.642Z,11.92
2019-03-01T23:35:59.681Z,11.58
2019-03-01T23:41:11.460Z,10.74
2019-03-01T23:46:17.389Z,11.29
2019-03-01T23:51:26.517Z,10.81
2019-03-01T23:56:35.585Z,11.56
